createdAt,value
2023-03-06T00:00:40.098Z,5.64
2023-03-06T00:01:40.440Z,5.66
2023-03-06T00:02:40.669Z,5.64
2023-03-06T00:03:41.085Z,5.63
2023-03-06T00:04:41.257Z,5.64
2023-03-06T00:05:41.623Z,5.52
2023-03-06T00:06:41.795Z,5.50
2023-03-06T00:07:42.083Z,5.50
2023-03-06T00:08:42.489Z,5.50
2023-03-06T00:09:42.705Z,5.52
2023-03-06T00:10:42.974Z,5.53
2023-03-06T00:11:43.240Z,5.50
2023-03-06T00:12:43.554Z,5.45
2023-03-06T00:13:43.738Z,5.40
2023-03-06T00:14:44.110Z,5.41
2023-03-06T00:15:44.328Z,5.38
2023-03-06T00:16:44.644Z,5.38
2023-03-06T00:17:44.936Z,5.46
2023-03-06T00:18:45.244Z,5.48
2023-03-06T00:19:45.556Z,5.48
2023-03-06T00:20:49.309Z,5.48
2023-03-06T00:21:46.140Z,5.49
2023-03-06T00:22:46.477Z,5.43
2023-03-06T00:23:46.704Z,5.35
2023-03-06T00:24:47.012Z,5.37
2023-03-06T00:25:47.264Z,5.43
2023-03-06T00:26:47.573Z,5.43
2023-03-06T00:27:47.914Z,5.43
2023-03-06T00:28:48.280Z,5.46
2023-03-06T00:29:48.499Z,5.49
2023-03-06T00:30:48.758Z,5.41
2023-03-06T00:31:49.003Z,5.43
2023-03-06T00:32:49.225Z,5.41
2023-03-06T00:33:49.550Z,5.38
2023-03-06T00:34:49.876Z,5.38
2023-03-06T00:35:50.294Z,5.32
2023-03-06T00:36:50.398Z,5.34
2023-03-06T00:37:50.681Z,5.35
2023-03-06T00:38:51.005Z,5.41
2023-03-06T00:39:51.294Z,5.30
2023-03-06T00:40:51.709Z,5.28
2023-03-06T00:41:51.892Z,5.34
2023-03-06T00:42:52.242Z,5.34
2023-03-06T00:43:52.550Z,5.34
2023-03-06T00:44:52.985Z,5.34
2023-03-06T00:45:53.088Z,5.35
2023-03-06T00:46:53.457Z,5.38
2023-03-06T00:47:53.813Z,5.37
2023-03-06T00:48:54.119Z,5.34
2023-03-06T00:49:54.353Z,5.38
2023-03-06T00:50:54.691Z,5.40
2023-03-06T00:51:54.924Z,5.45
2023-03-06T00:52:55.239Z,5.37
2023-03-06T00:53:55.426Z,5.22
2023-03-06T00:54:55.801Z,5.14
2023-03-06T00:55:56.944Z,5.09
2023-03-06T00:56:56.438Z,5.10
2023-03-06T00:57:56.749Z,5.14
2023-03-06T00:58:57.047Z,5.13
2023-03-06T00:59:57.366Z,5.12
2023-03-06T01:00:57.753Z,5.16
2023-03-06T01:01:58.048Z,5.23
2023-03-06T01:02:58.329Z,5.20
2023-03-06T01:03:58.540Z,5.19
2023-03-06T01:04:58.949Z,5.22
2023-03-06T01:05:59.158Z,5.17
2023-03-06T01:06:59.493Z,5.14
2023-03-06T01:07:59.778Z,5.13
2023-03-06T01:09:00.154Z,5.17
2023-03-06T01:10:00.857Z,5.14
2023-03-06T01:11:00.816Z,5.16
2023-03-06T01:12:01.034Z,5.25
2023-03-06T01:13:01.246Z,5.22
2023-03-06T01:14:01.578Z,5.20
2023-03-06T01:15:01.976Z,5.13
2023-03-06T01:16:02.198Z,5.09
2023-03-06T01:17:02.536Z,5.10
2023-03-06T01:18:02.704Z,5.12
2023-03-06T01:19:03.022Z,5.09
2023-03-06T01:20:03.374Z,4.99
2023-03-06T01:21:03.607Z,5.02
2023-03-06T01:22:03.818Z,5.04
2023-03-06T01:23:04.143Z,5.05
2023-03-06T01:24:05.412Z,5.02
2023-03-06T01:25:04.735Z,4.98
2023-03-06T01:26:05.022Z,4.94
2023-03-06T01:27:05.435Z,4.89
2023-03-06T01:28:05.625Z,4.95
2023-03-06T01:29:05.941Z,4.95
2023-03-06T01:30:06.306Z,5.01
2023-03-06T01:31:06.491Z,5.09
2023-03-06T01:32:06.918Z,5.14
2023-03-06T01:33:07.122Z,5.14
2023-03-06T01:34:07.436Z,5.12
2023-03-06T01:35:07.737Z,5.13
2023-03-06T01:36:08.021Z,5.16
2023-03-06T01:37:08.414Z,5.19
2023-03-06T01:38:09.125Z,5.22
2023-03-06T01:39:08.889Z,5.27
2023-03-06T01:40:09.197Z,5.28
2023-03-06T01:41:09.526Z,5.28
2023-03-06T01:42:09.819Z,5.27
2023-03-06T01:43:10.158Z,5.22
2023-03-06T01:44:10.441Z,5.23
2023-03-06T01:45:10.882Z,5.22
2023-03-06T01:46:11.062Z,5.20
2023-03-06T01:47:11.425Z,5.19
2023-03-06T01:48:11.697Z,5.16
2023-03-06T01:49:12.070Z,5.16
2023-03-06T01:50:12.383Z,5.13
2023-03-06T01:51:12.693Z,5.12
2023-03-06T01:52:13.025Z,5.05
2023-03-06T01:53:13.340Z,5.12
2023-03-06T01:54:13.655Z,5.07
2023-03-06T01:55:13.975Z,5.09
2023-03-06T01:56:14.274Z,5.01
2023-03-06T01:57:14.840Z,4.99
2023-03-06T01:58:14.887Z,4.98
2023-03-06T01:59:15.240Z,5.02
2023-03-06T02:00:15.570Z,5.05
2023-03-06T02:01:16.010Z,5.01
2023-03-06T02:02:16.263Z,5.04
2023-03-06T02:03:16.472Z,4.95
2023-03-06T02:04:16.792Z,4.96
2023-03-06T02:05:17.128Z,4.95
2023-03-06T02:06:17.473Z,4.96
2023-03-06T02:07:17.648Z,4.98
2023-03-06T02:08:17.991Z,4.99
2023-03-06T02:09:18.214Z,5.04
2023-03-06T02:10:18.527Z,5.09
2023-03-06T02:11:18.890Z,4.98
2023-03-06T02:12:19.066Z,4.95
2023-03-06T02:13:19.401Z,4.98
2023-03-06T02:14:19.697Z,5.07
2023-03-06T02:15:20.072Z,5.04
2023-03-06T02:16:20.492Z,5.02
2023-03-06T02:17:20.705Z,4.98
2023-03-06T02:18:21.014Z,4.95
2023-03-06T02:19:21.389Z,4.94
2023-03-06T02:20:21.593Z,4.98
2023-03-06T02:21:21.956Z,4.95
2023-03-06T02:22:22.168Z,4.95
2023-03-06T02:23:22.454Z,4.94
2023-03-06T02:24:22.795Z,4.89
2023-03-06T02:25:24.128Z,4.91
2023-03-06T02:26:23.422Z,4.88
2023-03-06T02:27:23.798Z,4.79
2023-03-06T02:28:24.099Z,4.84
2023-03-06T02:29:24.422Z,4.91
2023-03-06T02:30:24.793Z,4.88
2023-03-06T02:31:25.005Z,4.92
2023-03-06T02:32:25.373Z,4.89
2023-03-06T02:33:25.578Z,4.86
2023-03-06T02:34:25.892Z,4.91
2023-03-06T02:35:26.323Z,4.84
2023-03-06T02:36:26.549Z,4.83
2023-03-06T02:37:26.862Z,4.84
2023-03-06T02:38:27.145Z,4.88
2023-03-06T02:39:27.569Z,4.86
2023-03-06T02:40:27.799Z,4.77
2023-03-06T02:41:28.123Z,4.75
2023-03-06T02:42:28.349Z,4.79
2023-03-06T02:43:28.700Z,4.86
2023-03-06T02:44:29.017Z,4.84
2023-03-06T02:45:29.342Z,4.91
2023-03-06T02:46:29.696Z,4.89
2023-03-06T02:47:29.934Z,4.89
2023-03-06T02:48:30.271Z,4.89
2023-03-06T02:49:30.603Z,4.83
2023-03-06T02:50:30.918Z,4.86
2023-03-06T02:51:31.249Z,4.86
2023-03-06T02:52:31.642Z,4.83
2023-03-06T02:53:31.904Z,4.89
2023-03-06T02:54:32.071Z,4.91
2023-03-06T02:55:32.442Z,4.86
2023-03-06T02:56:32.697Z,4.88
2023-03-06T02:57:33.016Z,4.72
2023-03-06T02:58:33.387Z,4.73
2023-03-06T02:59:33.599Z,4.79
2023-03-06T03:00:33.890Z,4.73
2023-03-06T03:01:34.246Z,4.76
2023-03-06T03:02:34.433Z,4.75
2023-03-06T03:03:34.847Z,4.72
2023-03-06T03:04:35.051Z,4.64
2023-03-06T03:05:35.348Z,4.67
2023-03-06T03:06:35.661Z,4.75
2023-03-06T03:07:35.952Z,4.75
2023-03-06T03:08:36.291Z,4.73
2023-03-06T03:09:36.609Z,4.67
2023-03-06T03:10:36.879Z,4.61
2023-03-06T03:11:37.244Z,4.58
2023-03-06T03:12:37.516Z,4.65
2023-03-06T03:13:37.866Z,4.61
2023-03-06T03:14:38.156Z,4.64
2023-03-06T03:15:38.553Z,4.67
2023-03-06T03:16:39.279Z,4.64
2023-03-06T03:17:39.056Z,4.59
2023-03-06T03:18:39.322Z,4.57
2023-03-06T03:19:39.677Z,4.46
2023-03-06T03:20:40.011Z,4.51
2023-03-06T03:21:40.379Z,4.54
2023-03-06T03:22:40.560Z,4.51
2023-03-06T03:23:40.929Z,4.54
2023-03-06T03:24:41.274Z,4.54
2023-03-06T03:25:41.569Z,4.61
2023-03-06T03:26:41.839Z,4.67
2023-03-06T03:27:42.159Z,4.65
2023-03-06T03:28:42.419Z,4.72
2023-03-06T03:29:42.778Z,4.67
2023-03-06T03:30:43.094Z,4.70
2023-03-06T03:31:43.395Z,4.62
2023-03-06T03:32:43.698Z,4.64
2023-03-06T03:33:43.975Z,4.65
2023-03-06T03:34:44.216Z,4.73
2023-03-06T03:35:44.571Z,4.76
2023-03-06T03:36:44.866Z,4.77
2023-03-06T03:37:45.198Z,4.64
2023-03-06T03:38:45.413Z,4.62
2023-03-06T03:39:45.728Z,4.61
2023-03-06T03:40:46.129Z,4.61
2023-03-06T03:41:46.324Z,4.61
2023-03-06T03:42:46.625Z,4.64
2023-03-06T03:43:46.934Z,4.58
2023-03-06T03:44:47.225Z,4.64
2023-03-06T03:45:47.566Z,4.65
2023-03-06T03:46:47.940Z,4.69
2023-03-06T03:47:48.142Z,4.72
2023-03-06T03:48:48.479Z,4.70
2023-03-06T03:49:48.873Z,4.70
2023-03-06T03:50:49.025Z,4.67
2023-03-06T03:51:49.399Z,4.46
2023-03-06T03:52:50.530Z,4.44
2023-03-06T03:53:50.025Z,4.43
2023-03-06T03:54:50.342Z,4.42
2023-03-06T03:55:50.644Z,4.42
2023-03-06T03:56:50.936Z,4.44
2023-03-06T03:57:51.249Z,4.46
2023-03-06T03:58:51.450Z,4.54
2023-03-06T03:59:52.176Z,4.54
2023-03-06T04:00:52.011Z,4.58
2023-03-06T04:01:52.417Z,4.57
2023-03-06T04:02:52.703Z,4.54
2023-03-06T04:03:53.038Z,4.51
2023-03-06T04:04:53.399Z,4.52
2023-03-06T04:05:53.624Z,4.58
2023-03-06T04:06:53.913Z,4.58
2023-03-06T04:07:54.305Z,4.54
2023-03-06T04:08:54.607Z,4.44
2023-03-06T04:09:55.881Z,4.43
2023-03-06T04:10:55.198Z,4.44
2023-03-06T04:11:55.472Z,4.46
2023-03-06T04:12:56.004Z,4.47
2023-03-06T04:13:56.068Z,4.46
2023-03-06T04:14:56.342Z,4.44
2023-03-06T04:15:56.696Z,4.43
2023-03-06T04:16:56.985Z,4.42
2023-03-06T04:17:57.461Z,4.44
2023-03-06T04:18:57.727Z,4.46
2023-03-06T04:19:57.913Z,4.51
2023-03-06T04:20:58.253Z,4.57
2023-03-06T04:21:58.574Z,4.54
2023-03-06T04:22:58.893Z,4.54
2023-03-06T04:23:59.198Z,4.55
2023-03-06T04:24:59.505Z,4.57
2023-03-06T04:25:59.839Z,4.57
2023-03-06T04:27:00.010Z,4.57
2023-03-06T04:28:00.349Z,4.57
2023-03-06T04:29:00.638Z,4.57
2023-03-06T04:30:01.011Z,4.59
2023-03-06T04:31:01.239Z,4.64
2023-03-06T04:32:01.620Z,4.70
2023-03-06T04:33:01.977Z,4.70
2023-03-06T04:34:02.100Z,4.70
2023-03-06T04:35:02.328Z,4.65
2023-03-06T04:36:02.713Z,4.64
2023-03-06T04:37:03.018Z,4.67
2023-03-06T04:38:03.226Z,4.70
2023-03-06T04:39:03.564Z,4.62
2023-03-06T04:40:04.738Z,4.65
2023-03-06T04:41:04.126Z,4.72
2023-03-06T04:42:06.423Z,4.73
2023-03-06T04:43:04.563Z,4.76
2023-03-06T04:44:04.943Z,4.86
2023-03-06T04:45:05.244Z,4.88
2023-03-06T04:46:05.543Z,4.95
2023-03-06T04:47:05.711Z,4.95
2023-03-06T04:48:06.097Z,4.96
2023-03-06T04:49:06.403Z,4.96
2023-03-06T04:50:06.724Z,4.92
2023-03-06T04:51:07.075Z,4.80
2023-03-06T04:52:07.366Z,4.72
2023-03-06T04:53:07.690Z,4.69
2023-03-06T04:54:08.043Z,4.67
2023-03-06T04:55:08.218Z,4.73
2023-03-06T04:56:08.580Z,4.77
2023-03-06T04:57:08.862Z,4.72
2023-03-06T04:58:09.277Z,4.75
2023-03-06T04:59:09.952Z,4.77
2023-03-06T05:00:09.871Z,4.75
2023-03-06T05:01:10.083Z,4.76
2023-03-06T05:02:10.426Z,4.83
2023-03-06T05:03:10.736Z,4.72
2023-03-06T05:04:10.934Z,4.62
2023-03-06T05:05:11.231Z,4.62
2023-03-06T05:06:11.548Z,4.67
2023-03-06T05:07:11.831Z,4.72
2023-03-06T05:08:12.197Z,4.70
2023-03-06T05:09:12.465Z,4.75
2023-03-06T05:10:12.840Z,4.72
2023-03-06T05:11:13.109Z,4.75
2023-03-06T05:12:13.457Z,4.79
2023-03-06T05:13:13.682Z,4.86
2023-03-06T05:14:13.988Z,4.76
2023-03-06T05:15:14.303Z,4.80
2023-03-06T05:16:14.520Z,4.84
2023-03-06T05:17:14.868Z,4.91
2023-03-06T05:18:15.234Z,4.94
2023-03-06T05:19:15.469Z,4.96
2023-03-06T05:20:15.772Z,4.95
2023-03-06T05:21:16.029Z,4.88
2023-03-06T05:22:16.347Z,4.86
2023-03-06T05:23:16.608Z,4.84
2023-03-06T05:24:17.045Z,4.89
2023-03-06T05:25:17.261Z,4.88
2023-03-06T05:26:17.593Z,4.92
2023-03-06T05:27:17.808Z,4.91
2023-03-06T05:28:18.121Z,4.88
2023-03-06T05:29:18.338Z,4.89
2023-03-06T05:30:18.746Z,4.91
2023-03-06T05:31:18.979Z,4.86
2023-03-06T05:32:19.303Z,4.89
2023-03-06T05:33:19.548Z,4.86
2023-03-06T05:34:19.795Z,4.86
2023-03-06T05:35:20.155Z,4.77
2023-03-06T05:36:20.388Z,4.83
2023-03-06T05:37:20.690Z,4.86
2023-03-06T05:38:21.019Z,4.83
2023-03-06T05:39:21.173Z,4.79
2023-03-06T05:40:21.484Z,4.83
2023-03-06T05:41:21.793Z,4.88
2023-03-06T05:42:23.024Z,4.88
2023-03-06T05:43:22.246Z,4.91
2023-03-06T05:44:22.582Z,4.91
2023-03-06T05:45:22.900Z,4.92
2023-03-06T05:46:23.226Z,4.96
2023-03-06T05:47:23.395Z,4.95
2023-03-06T05:48:23.682Z,4.95
2023-03-06T05:49:23.901Z,4.98
2023-03-06T05:50:24.259Z,5.01
2023-03-06T05:51:24.551Z,4.96
2023-03-06T05:52:24.881Z,5.01
2023-03-06T05:53:25.107Z,4.98
2023-03-06T05:54:25.458Z,5.02
2023-03-06T05:55:25.688Z,5.07
2023-03-06T05:56:26.204Z,5.07
2023-03-06T05:57:26.307Z,5.12
2023-03-06T05:58:26.568Z,5.12
2023-03-06T05:59:26.829Z,5.02
2023-03-06T06:00:27.112Z,4.99
2023-03-06T06:01:27.375Z,5.01
2023-03-06T06:02:27.729Z,5.02
2023-03-06T06:03:28.006Z,5.04
2023-03-06T06:04:28.299Z,5.01
2023-03-06T06:05:28.511Z,4.86
2023-03-06T06:06:29.258Z,4.84
2023-03-06T06:07:29.031Z,4.83
2023-03-06T06:08:29.463Z,4.70
2023-03-06T06:09:29.707Z,4.75
2023-03-06T06:10:29.997Z,4.79
2023-03-06T06:11:31.627Z,4.86
2023-03-06T06:12:30.584Z,4.95
2023-03-06T06:13:30.847Z,4.99
2023-03-06T06:14:31.116Z,4.99
2023-03-06T06:15:31.447Z,5.02
2023-03-06T06:16:31.681Z,4.98
2023-03-06T06:17:32.488Z,4.89
2023-03-06T06:18:32.302Z,4.79
2023-03-06T06:19:32.580Z,4.69
2023-03-06T06:20:32.913Z,4.54
2023-03-06T06:21:33.247Z,4.55
2023-03-06T06:22:33.494Z,4.65
2023-03-06T06:23:33.857Z,4.70
2023-03-06T06:24:34.100Z,4.72
2023-03-06T06:25:34.336Z,4.76
2023-03-06T06:26:34.635Z,4.86
2023-03-06T06:27:34.872Z,4.94
2023-03-06T06:28:35.158Z,4.92
2023-03-06T06:29:35.444Z,4.94
2023-03-06T06:30:35.700Z,4.94
2023-03-06T06:31:35.963Z,4.89
2023-03-06T06:32:36.261Z,4.94
2023-03-06T06:33:36.567Z,4.95
2023-03-06T06:34:36.812Z,4.95
2023-03-06T06:35:37.218Z,4.94
2023-03-06T06:36:37.510Z,4.92
2023-03-06T06:37:37.639Z,4.95
2023-03-06T06:38:37.912Z,4.83
2023-03-06T06:39:38.156Z,4.76
2023-03-06T06:40:38.462Z,4.84
2023-03-06T06:41:56.946Z,4.92
2023-03-06T06:42:40.530Z,4.92
2023-03-06T06:43:39.244Z,4.95
2023-03-06T06:44:39.660Z,5.02
2023-03-06T06:45:39.871Z,5.02
2023-03-06T06:47:20.631Z,4.96
2023-03-06T06:47:41.811Z,4.89
2023-03-06T06:48:40.748Z,4.88
2023-03-06T06:49:41.067Z,4.89
2023-03-06T06:50:41.314Z,4.88
2023-03-06T06:51:41.584Z,4.92
2023-03-06T06:52:41.884Z,4.95
2023-03-06T06:53:42.188Z,4.96
2023-03-06T06:54:42.386Z,4.86
2023-03-06T06:55:42.653Z,4.91
2023-03-06T06:56:42.911Z,4.95
2023-03-06T06:57:43.148Z,4.99
2023-03-06T06:58:43.439Z,5.02
2023-03-06T06:59:43.682Z,4.94
2023-03-06T07:00:44.071Z,4.92
2023-03-06T07:01:44.251Z,4.98
2023-03-06T07:02:44.492Z,4.99
2023-03-06T07:03:44.752Z,5.04
2023-03-06T07:05:02.064Z,5.05
2023-03-06T07:05:46.326Z,5.13
2023-03-06T07:06:45.586Z,5.10
2023-03-06T07:07:45.864Z,5.12
2023-03-06T07:08:46.240Z,5.12
2023-03-06T07:09:46.440Z,5.14
2023-03-06T07:10:46.740Z,5.10
2023-03-06T07:11:46.959Z,5.10
2023-03-06T07:12:47.269Z,5.12
2023-03-06T07:13:47.528Z,5.17
2023-03-06T07:14:47.822Z,5.22
2023-03-06T07:15:48.098Z,5.22
2023-03-06T07:16:48.384Z,5.25
2023-03-06T07:17:50.185Z,5.16
2023-03-06T07:18:48.939Z,5.05
2023-03-06T07:19:49.200Z,5.10
2023-03-06T07:20:49.473Z,5.13
2023-03-06T07:21:49.734Z,5.10
2023-03-06T07:22:51.865Z,5.12
2023-03-06T07:23:50.319Z,5.14
2023-03-06T07:24:50.598Z,5.09
2023-03-06T07:25:50.886Z,5.04
2023-03-06T07:26:51.241Z,4.98
2023-03-06T07:27:53.904Z,4.88
2023-03-06T07:28:52.994Z,4.77
2023-03-06T07:29:52.054Z,4.79
2023-03-06T07:30:52.525Z,4.83
2023-03-06T07:31:53.796Z,4.88
2023-03-06T07:32:52.964Z,4.94
2023-03-06T07:33:55.141Z,5.09
2023-03-06T07:35:00.581Z,5.05
2023-03-06T07:35:54.959Z,5.10
2023-03-06T07:36:54.139Z,5.07
2023-03-06T07:37:54.433Z,5.05
2023-03-06T07:38:54.943Z,4.96
2023-03-06T07:39:55.008Z,5.02
2023-03-06T07:40:55.312Z,5.10
2023-03-06T07:41:55.601Z,5.23
2023-03-06T07:43:03.506Z,5.30
2023-03-06T07:43:57.136Z,5.34
2023-03-06T07:44:56.455Z,5.38
2023-03-06T07:45:56.645Z,5.43
2023-03-06T07:46:56.977Z,5.55
2023-03-06T07:47:57.255Z,5.63
2023-03-06T07:48:57.543Z,5.60
2023-03-06T07:49:57.830Z,5.57
2023-03-06T07:50:58.184Z,5.56
2023-03-06T07:51:58.384Z,5.60
2023-03-06T07:52:58.645Z,5.60
2023-03-06T07:53:59.717Z,5.56
2023-03-06T07:54:59.488Z,5.53
2023-03-06T07:56:00.279Z,5.46
2023-03-06T07:57:00.313Z,5.30
2023-03-06T07:58:00.175Z,5.20
2023-03-06T07:59:00.617Z,5.30
2023-03-06T08:00:01.217Z,5.30
2023-03-06T08:01:01.112Z,5.35
2023-03-06T08:02:01.271Z,5.35
2023-03-06T08:03:01.542Z,5.35
2023-03-06T08:04:01.793Z,5.35
2023-03-06T08:05:02.037Z,5.48
2023-03-06T08:06:03.908Z,5.50
2023-03-06T08:07:02.638Z,5.57
2023-03-06T08:08:03.790Z,5.67
2023-03-06T08:09:03.199Z,5.71
2023-03-06T08:10:03.468Z,5.74
2023-03-06T08:11:03.865Z,5.73
2023-03-06T08:12:06.600Z,5.68
2023-03-06T08:13:06.019Z,5.64
2023-03-06T08:14:04.767Z,5.59
2023-03-06T08:15:05.054Z,5.55
2023-03-06T08:16:05.341Z,5.53
2023-03-06T08:17:05.606Z,5.52
2023-03-06T08:18:05.858Z,5.50
2023-03-06T08:19:06.521Z,5.52
2023-03-06T08:20:06.589Z,5.52
2023-03-06T08:21:06.791Z,5.55
2023-03-06T08:22:07.013Z,5.60
2023-03-06T08:23:07.299Z,5.63
2023-03-06T08:24:08.507Z,5.68
2023-03-06T08:25:08.741Z,5.71
2023-03-06T08:26:08.071Z,5.71
2023-03-06T08:27:08.348Z,5.71
2023-03-06T08:28:08.630Z,5.70
2023-03-06T08:29:09.255Z,5.75
2023-03-06T08:30:09.233Z,5.81
2023-03-06T08:31:10.228Z,5.83
2023-03-06T08:32:22.905Z,5.89
2023-03-06T08:33:12.759Z,5.88
2023-03-06T08:34:11.516Z,5.88
2023-03-06T08:35:10.612Z,5.78
2023-03-06T08:36:11.022Z,5.64
2023-03-06T08:37:11.582Z,5.67
2023-03-06T08:38:11.405Z,5.71
2023-03-06T08:39:12.500Z,5.74
2023-03-06T08:40:11.933Z,5.75
2023-03-06T08:41:12.292Z,5.82
2023-03-06T08:42:12.525Z,5.78
2023-03-06T08:43:14.163Z,5.78
2023-03-06T08:44:14.331Z,5.77
2023-03-06T08:45:13.339Z,5.68
2023-03-06T08:46:20.260Z,5.73
2023-03-06T08:47:14.331Z,5.70
2023-03-06T08:48:15.642Z,5.66
2023-03-06T08:49:14.673Z,5.67
2023-03-06T08:50:14.846Z,5.74
2023-03-06T08:51:15.114Z,5.71
2023-03-06T08:52:16.132Z,5.71
2023-03-06T08:53:15.729Z,5.67
2023-03-06T08:54:16.736Z,5.66
2023-03-06T08:55:17.354Z,5.71
2023-03-06T08:56:16.566Z,5.70
2023-03-06T08:57:17.218Z,5.73
2023-03-06T08:58:17.049Z,5.77
2023-03-06T08:59:19.458Z,5.85
2023-03-06T09:00:17.603Z,5.85
2023-03-06T09:01:18.041Z,5.88
2023-03-06T09:02:18.344Z,5.89
2023-03-06T09:03:18.453Z,5.93
2023-03-06T09:04:18.714Z,6.00
2023-03-06T09:05:19.026Z,6.00
2023-03-06T09:06:19.254Z,6.03
2023-03-06T09:07:20.263Z,5.98
2023-03-06T09:08:21.109Z,6.01
2023-03-06T09:09:20.132Z,6.01
2023-03-06T09:10:20.480Z,6.03
2023-03-06T09:11:20.742Z,6.04
2023-03-06T09:12:21.042Z,6.06
2023-03-06T09:13:21.361Z,5.98
2023-03-06T09:14:21.602Z,5.95
2023-03-06T09:15:22.780Z,5.95
2023-03-06T09:16:22.295Z,5.95
2023-03-06T09:17:22.537Z,5.98
2023-03-06T09:18:22.784Z,5.89
2023-03-06T09:19:23.082Z,5.89
2023-03-06T09:20:23.465Z,5.93
2023-03-06T09:21:23.752Z,5.96
2023-03-06T09:22:23.937Z,5.93
2023-03-06T09:23:24.231Z,5.95
2023-03-06T09:24:24.483Z,5.93
2023-03-06T09:25:24.810Z,5.96
2023-03-06T09:26:39.755Z,6.00
2023-03-06T09:27:26.337Z,6.03
2023-03-06T09:28:25.512Z,6.06
2023-03-06T09:29:25.817Z,6.04
2023-03-06T09:30:26.054Z,6.04
2023-03-06T09:31:26.375Z,6.03
2023-03-06T09:32:26.597Z,6.03
2023-03-06T09:33:26.952Z,6.07
2023-03-06T09:34:27.188Z,6.06
2023-03-06T09:35:27.593Z,6.09
2023-03-06T09:36:27.756Z,6.10
2023-03-06T09:37:27.997Z,6.13
2023-03-06T09:38:28.289Z,6.10
2023-03-06T09:39:28.596Z,6.10
2023-03-06T09:40:28.781Z,6.13
2023-03-06T09:41:29.067Z,6.19
2023-03-06T09:42:29.462Z,6.22
2023-03-06T09:43:29.571Z,6.22
2023-03-06T09:44:29.830Z,6.25
2023-03-06T09:45:30.143Z,6.21
2023-03-06T09:46:30.530Z,6.26
2023-03-06T09:47:30.745Z,6.30
2023-03-06T09:48:30.972Z,6.22
2023-03-06T09:49:31.239Z,6.18
2023-03-06T09:50:31.535Z,6.19
2023-03-06T09:51:31.823Z,6.19
2023-03-06T09:52:32.096Z,6.13
2023-03-06T09:53:32.407Z,6.22
2023-03-06T09:54:32.617Z,6.26
2023-03-06T09:55:33.014Z,6.38
2023-03-06T09:56:33.137Z,6.41
2023-03-06T09:57:33.436Z,6.47
2023-03-06T09:58:33.731Z,6.43
2023-03-06T09:59:34.025Z,6.40
2023-03-06T10:00:34.285Z,6.44
2023-03-06T10:01:34.556Z,6.41
2023-03-06T10:02:34.931Z,6.38
2023-03-06T10:03:36.312Z,6.43
2023-03-06T10:04:35.508Z,6.48
2023-03-06T10:05:35.738Z,6.54
2023-03-06T10:06:36.052Z,6.53
2023-03-06T10:07:36.374Z,6.58
2023-03-06T10:08:36.601Z,6.56
2023-03-06T10:09:36.900Z,6.54
2023-03-06T10:10:37.184Z,6.51
2023-03-06T10:11:37.451Z,6.50
2023-03-06T10:12:37.708Z,6.47
2023-03-06T10:13:38.021Z,6.46
2023-03-06T10:14:38.678Z,6.41
2023-03-06T10:15:39.641Z,6.46
2023-03-06T10:16:40.057Z,6.54
2023-03-06T10:17:41.638Z,6.54
2023-03-06T10:18:39.502Z,6.59
2023-03-06T10:19:39.615Z,6.63
2023-03-06T10:20:39.894Z,6.68
2023-03-06T10:21:40.172Z,6.69
2023-03-06T10:22:40.403Z,6.69
2023-03-06T10:23:40.712Z,6.73
2023-03-06T10:24:41.437Z,6.76
2023-03-06T10:25:42.249Z,6.76
2023-03-06T10:26:41.524Z,6.73
2023-03-06T10:27:42.055Z,6.73
2023-03-06T10:28:51.006Z,6.77
2023-03-06T10:29:45.444Z,6.69
2023-03-06T10:30:43.665Z,6.65
2023-03-06T10:31:42.845Z,6.61
2023-03-06T10:32:48.685Z,6.69
2023-03-06T10:33:50.007Z,6.53
2023-03-06T10:34:43.634Z,6.58
2023-03-06T10:36:04.989Z,6.59
2023-03-06T10:36:44.221Z,6.61
2023-03-06T10:37:44.612Z,6.69
2023-03-06T10:38:44.962Z,6.81
2023-03-06T10:39:45.901Z,6.95
2023-03-06T10:40:45.500Z,7.01
2023-03-06T10:42:02.749Z,7.08
2023-03-06T10:42:45.848Z,7.05
2023-03-06T10:43:46.568Z,7.09
2023-03-06T10:44:48.438Z,7.15
2023-03-06T10:45:49.234Z,7.17
2023-03-06T10:46:49.716Z,7.26
2023-03-06T10:47:47.334Z,7.24
2023-03-06T10:48:48.644Z,7.26
2023-03-06T10:49:48.347Z,7.31
2023-03-06T10:50:48.064Z,7.24
2023-03-06T10:51:48.754Z,7.02
2023-03-06T10:52:50.324Z,6.81
2023-03-06T10:53:48.983Z,6.69
2023-03-06T10:54:49.799Z,6.69
2023-03-06T10:55:49.501Z,6.71
2023-03-06T10:56:49.767Z,6.79
2023-03-06T10:57:51.982Z,6.80
2023-03-06T10:58:50.463Z,6.87
2023-03-06T10:59:50.688Z,6.90
2023-03-06T11:00:50.913Z,6.94
2023-03-06T11:01:51.161Z,6.94
2023-03-06T11:02:51.460Z,6.98
2023-03-06T11:03:54.307Z,7.01
2023-03-06T11:04:55.467Z,7.02
2023-03-06T11:05:54.460Z,7.04
2023-03-06T11:06:55.679Z,7.07
2023-03-06T11:07:52.851Z,7.16
2023-03-06T11:08:53.787Z,7.17
2023-03-06T11:09:53.406Z,7.15
2023-03-06T11:10:53.744Z,7.13
2023-03-06T11:11:53.947Z,7.19
2023-03-06T11:12:54.280Z,7.19
2023-03-06T11:13:54.490Z,7.17
2023-03-06T11:14:54.761Z,7.22
2023-03-06T11:15:55.071Z,7.19
2023-03-06T11:16:55.357Z,7.24
2023-03-06T11:17:55.687Z,7.31
2023-03-06T11:18:55.925Z,7.35
2023-03-06T11:19:56.195Z,7.37
2023-03-06T11:20:56.482Z,7.45
2023-03-06T11:21:56.712Z,7.53
2023-03-06T11:22:57.096Z,7.55
2023-03-06T11:23:57.297Z,7.53
2023-03-06T11:24:57.600Z,7.52
2023-03-06T11:25:57.812Z,7.44
2023-03-06T11:26:58.122Z,7.26
2023-03-06T11:27:58.331Z,7.08
2023-03-06T11:28:58.668Z,7.13
2023-03-06T11:29:58.860Z,7.09
2023-03-06T11:30:59.182Z,7.07
2023-03-06T11:31:59.462Z,7.04
2023-03-06T11:32:59.730Z,6.99
2023-03-06T11:33:59.983Z,6.99
2023-03-06T11:35:00.301Z,7.02
2023-03-06T11:36:00.545Z,7.05
2023-03-06T11:37:00.844Z,7.08
2023-03-06T11:38:01.121Z,7.09
2023-03-06T11:39:01.428Z,7.01
2023-03-06T11:40:01.660Z,6.86
2023-03-06T11:41:01.908Z,6.76
2023-03-06T11:42:02.232Z,6.77
2023-03-06T11:43:02.532Z,6.81
2023-03-06T11:44:02.755Z,6.84
2023-03-06T11:45:03.348Z,6.84
2023-03-06T11:46:03.279Z,6.81
2023-03-06T11:47:03.574Z,6.87
2023-03-06T11:48:03.850Z,6.83
2023-03-06T11:49:04.165Z,6.63
2023-03-06T11:50:04.369Z,6.71
2023-03-06T11:51:06.386Z,6.76
2023-03-06T11:52:04.915Z,6.72
2023-03-06T11:53:05.178Z,6.68
2023-03-06T11:54:05.497Z,6.61
2023-03-06T11:55:05.775Z,6.66
2023-03-06T11:56:06.046Z,6.61
2023-03-06T11:57:06.345Z,6.53
2023-03-06T11:58:06.590Z,6.58
2023-03-06T11:59:06.884Z,6.66
2023-03-06T12:00:07.126Z,6.72
2023-03-06T12:01:09.486Z,6.80
2023-03-06T12:02:07.884Z,6.84
2023-03-06T12:03:07.992Z,6.87
2023-03-06T12:04:08.286Z,6.81
2023-03-06T12:05:08.609Z,6.66
2023-03-06T12:06:08.818Z,6.58
2023-03-06T12:07:16.201Z,6.51
2023-03-06T12:08:10.244Z,6.59
2023-03-06T12:09:09.864Z,6.65
2023-03-06T12:10:09.982Z,6.61
2023-03-06T12:11:10.233Z,6.56
2023-03-06T12:12:10.519Z,6.51
2023-03-06T12:13:10.831Z,6.44
2023-03-06T12:14:11.036Z,6.46
2023-03-06T12:15:11.325Z,6.48
2023-03-06T12:16:11.606Z,6.43
2023-03-06T12:17:11.876Z,6.50
2023-03-06T12:18:12.138Z,6.61
2023-03-06T12:19:12.450Z,6.61
2023-03-06T12:20:12.821Z,6.65
2023-03-06T12:21:12.991Z,6.51
2023-03-06T12:22:13.207Z,6.54
2023-03-06T12:23:15.706Z,6.61
2023-03-06T12:24:13.749Z,6.61
2023-03-06T12:25:14.141Z,6.69
2023-03-06T12:26:14.360Z,6.69
2023-03-06T12:27:14.576Z,6.69
2023-03-06T12:28:14.843Z,6.68
2023-03-06T12:29:15.096Z,6.66
2023-03-06T12:30:15.408Z,6.73
2023-03-06T12:31:15.660Z,6.86
2023-03-06T12:32:16.001Z,6.97
2023-03-06T12:33:16.267Z,7.01
2023-03-06T12:34:16.571Z,6.95
2023-03-06T12:35:16.889Z,6.69
2023-03-06T12:36:17.182Z,6.66
2023-03-06T12:37:17.397Z,6.72
2023-03-06T12:38:17.644Z,6.80
2023-03-06T12:39:17.919Z,6.84
2023-03-06T12:40:18.174Z,6.79
2023-03-06T12:41:18.573Z,6.87
2023-03-06T12:42:23.404Z,6.99
2023-03-06T12:43:20.161Z,6.87
2023-03-06T12:44:19.410Z,6.98
2023-03-06T12:45:19.703Z,7.02
2023-03-06T12:46:19.966Z,7.12
2023-03-06T12:47:20.215Z,7.17
2023-03-06T12:48:20.512Z,7.22
2023-03-06T12:49:31.471Z,7.22
2023-03-06T12:50:23.072Z,7.35
2023-03-06T12:51:21.356Z,7.47
2023-03-06T12:52:29.728Z,7.55
2023-03-06T12:53:22.939Z,7.56
2023-03-06T12:54:22.197Z,7.56
2023-03-06T12:55:25.535Z,7.56
2023-03-06T12:56:22.781Z,7.59
2023-03-06T12:57:23.084Z,7.55
2023-03-06T12:58:23.395Z,7.60
2023-03-06T12:59:23.637Z,7.55
2023-03-06T13:00:23.875Z,7.55
2023-03-06T13:01:24.239Z,7.63
2023-03-06T13:02:24.407Z,7.72
2023-03-06T13:03:24.710Z,7.82
2023-03-06T13:04:24.973Z,7.81
2023-03-06T13:05:25.272Z,7.79
2023-03-06T13:06:25.567Z,7.78
2023-03-06T13:07:30.483Z,7.60
2023-03-06T13:08:26.126Z,7.50
2023-03-06T13:09:26.396Z,7.53
2023-03-06T13:10:26.677Z,7.58
2023-03-06T13:11:26.962Z,7.59
2023-03-06T13:12:27.249Z,7.56
2023-03-06T13:13:27.595Z,7.59
2023-03-06T13:14:27.822Z,7.55
2023-03-06T13:15:28.067Z,7.40
2023-03-06T13:16:28.386Z,7.23
2023-03-06T13:17:32.787Z,7.17
2023-03-06T13:18:28.905Z,7.16
2023-03-06T13:19:29.212Z,7.19
2023-03-06T13:20:29.448Z,7.22
2023-03-06T13:21:29.699Z,7.23
2023-03-06T13:22:30.065Z,7.32